Time;durP1;ratioP1;P1;durP2;ratioP2;P2;SDS_P1;SDS_P2;PMS_P1;PMS_P2;Temp;Humidity;BMP_temperature;BMP_pressure;BME280_temperature;BME280_humidity;BME280_pressure;Samples;Min_cycle;Max_cycle;Signal;HPM_P1;HPM_P2
2023/04/27 00:02:17;;;;;;;10.45;3.05;;;2.70;99.90;;;1.17;85.18;101270.31;4980101;28;20034;-77
2023/04/27 00:04:43;;;;;;;7.82;3.33;;;2.70;99.90;;;1.14;85.24;101265.09;4988969;28;20044;-76
2023/04/27 00:07:09;;;;;;;11.63;3.45;;;2.60;99.90;;;1.11;85.42;101270.31;4990156;28;20113;-75
2023/04/27 00:09:35;;;;;;;16.60;3.92;;;2.60;99.90;;;1.08;85.33;101270.28;5015968;28;20088;-76
2023/04/27 00:12:00;;;;;;;13.02;2.75;;;2.60;99.90;;;1.05;85.54;101262.50;4963480;28;21602;-76
2023/04/27 00:14:27;;;;;;;7.47;3.38;;;2.60;99.90;;;1.05;85.54;101263.38;4985983;28;20035;-76
2023/04/27 00:16:54;;;;;;;9.40;3.60;;;2.60;99.90;;;1.04;85.96;101259.06;4988257;28;20060;-75
2023/04/27 00:19:21;;;;;;;10.38;3.50;;;2.60;99.90;;;1.03;85.91;101262.50;4971973;28;20522;-77
2023/04/27 00:21:47;;;;;;;16.75;3.95;;;2.50;99.90;;;1.02;85.89;101264.22;4987648;28;20042;-75
2023/04/27 00:24:13;;;;;;;16.10;3.65;;;2.50;99.90;;;1.00;85.89;101268.56;5003278;28;20533;-76
2023/04/27 00:26:38;;;;;;;12.02;3.42;;;2.50;99.90;;;0.97;85.79;101263.38;4984242;28;20033;-76
2023/04/27 00:29:04;;;;;;;11.90;4.28;;;2.50;99.90;;;0.94;85.78;101270.28;4962707;28;20188;-76
2023/04/27 00:31:33;;;;;;;8.68;3.30;;;2.40;99.90;;;0.90;85.77;101271.97;4949722;28;20121;-76
2023/04/27 00:33:59;;;;;;;15.07;4.13;;;2.40;99.90;;;0.87;85.81;101272.00;4984347;28;20470;-77
2023/04/27 00:36:26;;;;;;;13.23;3.80;;;2.40;99.90;;;0.82;85.74;101260.72;4971153;28;20030;-76
2023/04/27 00:38:52;;;;;;;16.88;4.75;;;2.30;99.90;;;0.79;86.14;101268.50;4993778;28;20026;-76
2023/04/27 00:41:20;;;;;;;15.45;4.18;;;2.30;99.90;;;0.77;85.65;101278.00;5018835;28;20042;-75
2023/04/27 00:43:46;;;;;;;18.20;4.55;;;2.30;99.90;;;0.74;86.22;101273.69;4988609;28;20033;-76
2023/04/27 00:46:16;;;;;;;15.93;4.30;;;2.20;99.90;;;0.74;85.86;101272.81;4988137;28;20042;-75
2023/04/27 00:48:43;;;;;;;12.65;3.80;;;2.20;99.90;;;0.72;86.26;101279.72;4994718;28;20109;-76
2023/04/27 00:51:09;;;;;;;11.73;3.85;;;2.20;99.90;;;0.69;86.49;101271.94;4989310;28;20045;-77
2023/04/27 00:53:36;;;;;;;12.75;3.75;;;2.20;99.90;;;0.68;86.15;101280.56;4988973;28;20050;-76
2023/04/27 00:56:06;;;;;;;14.75;3.83;;;2.20;99.90;;;0.66;86.21;101277.13;4959891;28;20719;-76
2023/04/27 00:58:32;;;;;;;15.85;3.80;;;2.20;99.90;;;0.65;86.72;101285.72;4989353;28;20125;-76
2023/04/27 01:00:59;;;;;;;11.73;3.80;;;2.20;99.90;;;0.63;86.54;101284.88;5004158;28;20042;-76
2023/04/27 01:03:26;;;;;;;11.45;3.90;;;2.10;99.90;;;0.62;86.58;101286.59;4986085;28;20513;-77
2023/04/27 01:05:52;;;;;;;16.25;3.97;;;2.10;99.90;;;0.60;86.55;101288.31;4983721;28;20126;-77
2023/04/27 01:08:17;;;;;;;17.13;4.25;;;2.10;99.90;;;0.58;86.68;101288.34;4994003;28;20100;-76
2023/04/27 01:10:43;;;;;;;14.35;4.55;;;2.10;99.90;;;0.58;86.66;101290.03;4991123;28;20503;-77
2023/04/27 01:13:09;;;;;;;12.25;3.85;;;2.10;99.90;;;0.56;86.95;101294.34;4980997;28;20054;-76
2023/04/27 01:15:35;;;;;;;16.50;4.22;;;2.10;99.90;;;0.55;86.92;101290.91;4988759;28;20109;-77
2023/04/27 01:18:03;;;;;;;17.10;4.15;;;2.10;99.90;;;0.54;87.05;101289.19;4988299;28;20054;-77
2023/04/27 01:20:29;;;;;;;18.85;4.28;;;2.00;99.90;;;0.52;87.16;101293.50;4988731;28;20065;-77
2023/04/27 01:22:58;;;;;;;11.60;4.30;;;2.00;99.90;;;0.52;87.42;101290.00;4991178;28;20113;-75
2023/04/27 01:25:24;;;;;;;12.18;4.13;;;2.00;99.90;;;0.48;87.62;101293.47;4983723;28;20052;-77
2023/04/27 01:27:50;;;;;;;15.80;4.65;;;2.00;99.90;;;0.45;87.25;101283.94;4994613;28;20066;-76
2023/04/27 01:30:17;;;;;;;16.00;4.43;;;2.00;99.90;;;0.43;87.36;101285.66;4990015;28;20088;-76
2023/04/27 01:32:42;;;;;;;21.42;5.20;;;2.00;99.90;;;0.40;87.67;101291.69;4990481;28;20034;-76
2023/04/27 01:35:09;;;;;;;13.70;4.63;;;1.90;99.90;;;0.39;88.04;101291.72;4976518;28;20044;-77
2023/04/27 01:37:35;;;;;;;14.23;4.88;;;1.90;99.90;;;0.36;87.48;101289.09;4991565;28;20056;-76
2023/04/27 01:40:00;;;;;;;13.30;4.45;;;1.90;99.90;;;0.34;87.76;101294.25;4974208;28;20042;-76
2023/04/27 01:42:29;;;;;;;15.88;4.97;;;1.90;99.90;;;0.31;87.85;101291.66;4972383;28;20026;-75
2023/04/27 01:44:54;;;;;;;13.25;4.55;;;1.80;99.90;;;0.30;87.92;101296.84;5003843;28;20046;-76
2023/04/27 01:47:20;;;;;;;23.67;4.88;;;1.80;99.90;;;0.27;88.02;101295.09;4975903;28;20040;-76
2023/04/27 01:49:46;;;;;;;17.33;4.78;;;1.80;99.90;;;0.26;88.52;101295.97;4985432;28;20040;-76
2023/04/27 01:52:12;;;;;;;13.60;4.78;;;1.80;99.90;;;0.24;88.72;101299.38;4995705;28;20038;-76
2023/04/27 01:54:38;;;;;;;16.35;4.70;;;1.80;99.90;;;0.22;88.15;101303.69;4981618;28;20114;-75
2023/04/27 01:57:03;;;;;;;10.55;5.00;;;1.80;99.90;;;0.19;88.48;101302.84;4990728;28;20352;-75
2023/04/27 01:59:29;;;;;;;14.27;5.22;;;1.70;99.90;;;0.17;88.93;101307.16;4989959;28;20068;-77
2023/04/27 02:01:55;;;;;;;18.70;5.30;;;1.70;99.90;;;0.15;88.98;101308.88;4997670;28;20576;-76
2023/04/27 02:04:21;;;;;;;16.92;5.32;;;1.70;99.90;;;0.15;88.90;101306.28;4990480;28;20121;-76
2023/04/27 02:06:47;;;;;;;17.10;4.82;;;1.70;99.90;;;0.11;89.14;101298.47;4989950;28;20029;-76
2023/04/27 02:09:13;;;;;;;15.73;4.90;;;1.60;99.90;;;0.08;89.53;101304.50;4994297;28;20033;-76
2023/04/27 02:11:39;;;;;;;25.30;5.65;;;1.60;99.90;;;0.06;89.45;101306.19;4982294;28;20048;-77
2023/04/27 02:14:04;;;;;;;17.63;5.80;;;1.60;99.90;;;0.06;89.47;101307.94;4997841;28;20410;-76
2023/04/27 02:16:30;;;;;;;13.77;5.90;;;1.60;99.90;;;0.04;89.58;101302.72;4986707;28;20545;-76
2023/04/27 02:18:57;;;;;;;21.13;5.90;;;1.60;99.90;;;0.02;89.99;101301.84;4987912;28;20042;-77
2023/04/27 02:21:23;;;;;;;24.48;6.28;;;1.50;99.90;;;-0.01;90.00;101309.63;4990940;28;20493;-76
2023/04/27 02:23:49;;;;;;;20.42;5.97;;;1.60;99.90;;;-0.02;90.23;101310.50;4980840;28;20129;-76
2023/04/27 02:26:20;;;;;;;17.60;6.57;;;1.50;99.90;;;-0.04;90.32;101309.63;4996329;28;20165;-76
2023/04/27 02:28:47;;;;;;;18.50;5.50;;;1.50;99.90;;;-0.05;90.24;101315.63;4982759;28;20053;-76
2023/04/27 02:31:16;;;;;;;20.08;5.82;;;1.50;99.90;;;-0.05;90.41;101315.63;4956819;28;20057;-75
2023/04/27 02:33:41;;;;;;;22.27;6.05;;;1.50;99.90;;;-0.06;90.52;101319.09;4992050;28;20038;-76
2023/04/27 02:36:08;;;;;;;15.98;5.95;;;1.50;99.90;;;-0.07;90.96;101319.94;5005454;28;20068;-75
2023/04/27 02:38:34;;;;;;;19.02;6.10;;;1.50;99.90;;;-0.09;91.13;101330.28;4967670;28;20034;-77
2023/04/27 02:41:00;;;;;;;17.55;6.05;;;1.50;99.90;;;-0.10;91.34;101325.97;4963261;28;20674;-77
2023/04/27 02:43:25;;;;;;;22.60;6.30;;;1.50;99.90;;;-0.09;91.05;101321.63;5000531;28;20054;-77
2023/04/27 02:46:02;;;;;;;22.50;6.30;;;1.50;99.90;;;-0.08;91.69;101324.25;4961179;28;20041;-76
2023/04/27 02:48:30;;;;;;;18.38;6.07;;;1.50;99.90;;;-0.08;91.41;101323.41;4983946;28;20050;-77
2023/04/27 02:50:56;;;;;;;19.33;6.22;;;1.50;99.90;;;-0.08;91.15;101333.75;4991604;28;20062;-76
2023/04/27 02:53:24;;;;;;;19.20;6.55;;;1.40;99.90;;;-0.09;92.00;101332.00;4989663;28;20038;-76
2023/04/27 02:55:49;;;;;;;19.13;5.95;;;1.50;99.90;;;-0.10;92.46;101331.13;4973008;28;20450;-76
2023/04/27 02:58:16;;;;;;;19.15;6.60;;;1.50;99.90;;;-0.12;92.20;101330.25;4999915;28;20038;-76
2023/04/27 03:00:44;;;;;;;16.90;6.28;;;1.40;99.90;;;-0.10;92.11;101330.28;4940513;28;20407;-76
2023/04/27 03:03:09;;;;;;;24.75;6.43;;;1.40;99.90;;;-0.12;92.13;101330.25;4988992;28;20034;-76
2023/04/27 03:05:38;;;;;;;22.67;7.45;;;1.40;99.90;;;-0.10;92.31;101332.88;4982155;28;20084;-76
2023/04/27 03:08:04;;;;;;;28.42;6.85;;;1.50;99.90;;;-0.12;92.74;101327.66;4970903;28;20698;-75
2023/04/27 03:10:30;;;;;;;26.73;6.82;;;1.50;99.90;;;-0.10;92.62;101330.28;4981785;28;20053;-75
2023/04/27 03:12:55;;;;;;;20.05;6.55;;;1.40;99.90;;;-0.11;93.28;101331.13;4980307;28;20118;-76
2023/04/27 03:15:21;;;;;;;25.23;6.55;;;1.40;99.90;;;-0.10;93.22;101335.47;4997242;28;20043;-76
2023/04/27 03:17:47;;;;;;;17.05;6.93;;;1.50;99.90;;;-0.09;92.86;101332.84;4975229;28;20451;-76
2023/04/27 03:20:15;;;;;;;21.20;6.80;;;1.50;99.90;;;-0.08;93.58;101342.38;4974759;28;20042;-76
2023/04/27 03:22:44;;;;;;;26.17;6.93;;;1.50;99.90;;;-0.11;93.17;101344.94;4971315;28;20035;-76
2023/04/27 03:25:10;;;;;;;19.15;6.95;;;1.50;99.90;;;-0.12;93.22;101343.19;4962704;28;20088;-75
2023/04/27 03:27:36;;;;;;;24.38;7.13;;;1.40;99.90;;;-0.12;92.95;101345.78;4985885;28;20045;-76
2023/04/27 03:30:04;;;;;;;18.55;7.07;;;1.40;99.90;;;-0.12;93.09;101353.56;4990647;28;20149;-76
2023/04/27 03:32:29;;;;;;;21.73;6.63;;;1.40;99.90;;;-0.13;93.47;101361.31;4966300;28;20076;-76
2023/04/27 03:34:58;;;;;;;18.05;6.68;;;1.40;99.90;;;-0.14;92.87;101350.09;4973671;28;20498;-76
2023/04/27 03:37:24;;;;;;;20.52;7.22;;;1.40;99.90;;;-0.15;93.26;101358.72;4966649;28;20034;-75
2023/04/27 03:39:49;;;;;;;20.83;6.00;;;1.40;99.90;;;-0.13;93.66;101356.13;4952053;28;20088;-76
2023/04/27 03:42:15;;;;;;;21.95;7.43;;;1.40;99.90;;;-0.12;93.23;101356.16;4965575;28;20169;-76
2023/04/27 03:44:41;;;;;;;16.85;7.07;;;1.40;99.90;;;-0.09;93.51;101368.25;4969516;28;20034;-76
2023/04/27 03:47:08;;;;;;;21.17;7.38;;;1.40;99.90;;;-0.08;93.28;101365.66;4974248;28;20109;-76
2023/04/27 03:49:37;;;;;;;23.55;6.97;;;1.50;99.90;;;-0.04;94.09;101366.56;4991648;23;20046;-76
2023/04/27 03:52:03;;;;;;;21.42;7.53;;;1.50;99.90;;;0.00;93.69;101368.34;4977464;28;20096;-75
2023/04/27 03:54:32;;;;;;;24.50;8.13;;;1.50;99.90;;;0.03;93.79;101357.13;4975562;28;20087;-78
2023/04/27 03:56:57;;;;;;;22.00;7.03;;;1.50;99.90;;;0.06;93.96;101363.16;4990652;28;20045;-76
2023/04/27 03:59:23;;;;;;;20.55;7.13;;;1.50;99.90;;;0.10;93.65;101372.69;4958454;28;20132;-76
2023/04/27 04:01:49;;;;;;;20.98;7.53;;;1.60;99.90;;;0.16;93.79;101370.16;5007800;28;20038;-76
2023/04/27 04:04:15;;;;;;;21.80;7.05;;;1.60;99.90;;;0.23;93.67;101375.38;5003650;28;20049;-77
2023/04/27 04:06:41;;;;;;;24.23;7.50;;;1.70;99.90;;;0.31;93.55;101374.56;4966910;28;20677;-76
2023/04/27 04:09:07;;;;;;;26.40;7.18;;;1.80;99.90;;;0.40;93.27;101386.69;4998014;28;20033;-76
2023/04/27 04:11:33;;;;;;;17.52;6.95;;;1.80;99.90;;;0.48;92.98;101397.97;4998816;28;20054;-76
2023/04/27 04:13:58;;;;;;;26.90;7.40;;;1.90;99.90;;;0.54;92.75;101404.91;4996832;28;20045;-77
2023/04/27 04:16:24;;;;;;;15.18;7.10;;;1.90;99.90;;;0.47;92.61;101406.59;4993965;28;20037;-76
2023/04/27 04:18:50;;;;;;;18.90;5.72;;;1.90;99.90;;;0.44;93.08;101406.59;4994901;28;20037;-74
2023/04/27 04:21:16;;;;;;;20.70;6.05;;;1.90;99.90;;;0.40;93.89;101412.63;4988126;28;20112;-74
2023/04/27 04:23:42;;;;;;;22.95;6.80;;;1.90;99.90;;;0.37;93.74;101413.47;5009396;28;20084;-74
2023/04/27 04:26:08;;;;;;;16.60;5.75;;;1.80;99.90;;;0.31;94.86;101417.75;4992615;28;20113;-74
2023/04/27 04:28:34;;;;;;;17.23;6.13;;;1.80;99.90;;;0.33;95.08;101418.63;4987311;28;20037;-74
2023/04/27 04:31:01;;;;;;;22.20;6.40;;;1.90;99.90;;;0.46;95.26;101420.44;4989323;28;20067;-74
2023/04/27 04:33:27;;;;;;;28.10;7.45;;;1.90;99.90;;;0.58;95.17;101423.09;5007828;28;20112;-76
2023/04/27 04:35:53;;;;;;;25.25;7.82;;;2.00;99.90;;;0.68;93.91;101425.72;5012817;28;20110;-74
2023/04/27 04:38:20;;;;;;;27.38;7.60;;;2.00;99.90;;;0.78;93.73;101428.38;5000542;28;20045;-75
2023/04/27 04:40:46;;;;;;;19.45;7.13;;;2.10;99.90;;;0.96;93.26;101421.53;4997505;28;20034;-75
2023/04/27 04:43:12;;;;;;;23.88;8.02;;;2.20;99.90;;;1.10;92.46;101432.84;4986630;28;20034;-74
2023/04/27 04:45:37;;;;;;;24.23;8.05;;;2.80;99.90;;;3.16;91.34;101442.28;5006535;28;20486;-74
2023/04/27 04:48:03;;;;;;;25.15;7.40;;;4.40;99.90;;;6.58;84.61;101454.03;4999923;28;20036;-75
2023/04/27 04:50:29;;;;;;;19.77;5.88;;;6.20;99.90;;;9.10;75.88;101459.56;5012631;28;20033;-74
2023/04/27 04:52:55;;;;;;;15.10;5.63;;;7.90;99.90;;;11.46;66.47;101456.91;4994693;28;20374;-75
2023/04/27 04:55:21;;;;;;;16.80;5.13;;;9.70;99.90;;;13.53;59.30;101472.81;4994290;28;20057;-75
2023/04/27 04:57:47;;;;;;;13.98;5.35;;;11.20;99.90;;;15.40;53.71;101483.66;5005853;28;20037;-75
2023/04/27 05:00:13;;;;;;;13.77;4.63;;;12.70;99.90;;;17.11;49.69;101492.41;5013350;28;20081;-74
2023/04/27 05:02:43;;;;;;;17.77;4.80;;;14.00;99.90;;;18.52;45.89;101507.25;4995458;28;20025;-75
2023/04/27 05:05:09;;;;;;;12.57;4.90;;;15.10;99.90;;;19.68;43.64;101516.94;4979876;28;20037;-74
2023/04/27 05:07:36;;;;;;;12.85;4.18;;;16.00;99.90;;;20.71;41.53;101535.19;5008822;28;20053;-74
2023/04/27 05:10:02;;;;;;;16.15;4.15;;;16.90;99.90;;;21.17;40.49;101549.56;4965819;28;20033;-75
2023/04/27 05:12:28;;;;;;;11.57;3.97;;;17.50;99.90;;;20.72;39.40;101554.81;5010113;28;20095;-75
2023/04/27 05:14:56;;;;;;;11.73;3.97;;;17.90;99.70;;;22.54;38.02;101579.59;4991538;28;20453;-77
2023/04/27 05:17:22;;;;;;;11.85;3.92;;;18.50;98.30;;;23.36;36.45;101591.47;4995219;28;20034;-74
2023/04/27 05:19:48;;;;;;;12.73;3.70;;;19.10;97.80;;;24.20;35.26;101597.44;4992365;28;20056;-75
2023/04/27 05:22:14;;;;;;;9.50;3.80;;;19.70;96.70;;;24.87;34.39;101611.91;5008162;28;20408;-74
2023/04/27 05:24:39;;;;;;;11.45;3.45;;;20.30;95.90;;;25.36;33.38;101615.41;4993487;28;20033;-74
2023/04/27 05:27:05;;;;;;;9.48;3.50;;;20.60;95.10;;;25.55;32.97;101629.78;5011946;28;20049;-74
2023/04/27 05:29:31;;;;;;;10.95;3.67;;;21.00;94.20;;;26.01;32.24;101628.06;5013445;28;20128;-75
2023/04/27 05:31:57;;;;;;;9.27;3.20;;;21.30;94.20;;;26.57;31.39;101637.81;5011387;28;20030;-74
2023/04/27 05:34:23;;;;;;;10.23;3.28;;;21.70;93.50;;;26.97;30.88;101649.13;5003403;28;20040;-75
2023/04/27 05:36:51;;;;;;;9.85;3.47;;;22.00;92.80;;;26.21;31.18;101647.69;4999999;28;20517;-74
2023/04/27 05:39:17;;;;;;;12.27;3.63;;;22.20;92.30;;;27.35;30.38;101664.13;5001880;28;20309;-75
2023/04/27 05:41:43;;;;;;;10.05;3.35;;;22.00;91.80;;;27.56;30.07;101671.88;5010602;28;20045;-74
2023/04/27 05:44:08;;;;;;;10.35;3.65;;;22.70;91.50;;;27.87;29.53;101675.97;5010262;28;20048;-74
2023/04/27 05:46:34;;;;;;;12.23;3.22;;;22.90;91.50;;;28.03;29.56;101684.13;5012562;28;20026;-74
2023/04/27 05:49:00;;;;;;;11.60;3.55;;;22.60;90.10;;;23.54;32.52;101638.22;5001098;28;20172;-75
2023/04/27 05:51:27;;;;;;;9.65;3.42;;;22.00;90.80;;;25.34;32.14;101673.16;4977707;28;20574;-74
2023/04/27 05:53:54;;;;;;;9.93;3.17;;;21.80;90.50;;;26.10;30.89;101674.91;5009587;28;20043;-75
2023/04/27 05:56:20;;;;;;;13.10;3.47;;;22.20;91.40;;;27.35;30.28;101693.03;4999529;28;20034;-74
2023/04/27 05:58:46;;;;;;;9.75;3.20;;;22.80;90.20;;;28.29;29.26;101707.59;4994278;28;20429;-75
2023/04/27 06:01:12;;;;;;;12.40;3.28;;;23.60;90.80;;;29.17;28.04;101720.66;5010796;28;20021;-75
2023/04/27 06:03:38;;;;;;;12.02;3.50;;;24.30;90.10;;;29.62;27.77;101725.53;4992739;28;20076;-75
2023/04/27 06:06:04;;;;;;;17.33;3.53;;;24.80;89.70;;;30.03;27.42;101735.44;4987856;28;20487;-75
2023/04/27 06:08:30;;;;;;;7.68;3.35;;;25.30;87.00;;;30.21;27.22;101749.63;5011269;28;20037;-75
2023/04/27 06:10:58;;;;;;;11.15;3.50;;;25.60;85.10;;;30.18;27.03;101749.16;4983027;28;20095;-74
2023/04/27 06:13:24;;;;;;;10.10;3.50;;;25.80;86.10;;;30.29;26.87;101750.66;4995776;28;20521;-75
2023/04/27 06:15:50;;;;;;;10.43;3.20;;;26.10;85.00;;;30.29;26.69;101756.09;5002246;28;20049;-75
2023/04/27 06:18:16;;;;;;;11.80;3.50;;;26.20;85.10;;;30.27;26.96;101757.06;4991867;28;20060;-75
2023/04/27 06:20:41;;;;;;;9.05;2.95;;;26.30;82.30;;;29.20;27.26;101756.44;5001502;28;20040;-75
2023/04/27 06:23:07;;;;;;;11.60;3.90;;;25.70;83.10;;;27.42;29.49;101731.94;4989492;28;20096;-75
2023/04/27 06:25:34;;;;;;;9.25;2.90;;;25.40;81.30;;;28.32;28.29;101750.59;5005019;28;20057;-75
2023/04/27 06:28:00;;;;;;;7.45;2.95;;;25.40;83.60;;;28.42;28.11;101748.59;5007547;28;20885;-75
2023/04/27 06:30:28;;;;;;;11.85;3.42;;;25.10;83.50;;;26.98;29.54;101740.00;4991847;28;20029;-75
2023/04/27 06:32:54;;;;;;;10.95;3.47;;;24.80;82.30;;;27.05;29.69;101751.91;4997178;28;20029;-75
2023/04/27 06:35:21;;;;;;;12.98;3.17;;;24.80;84.00;;;27.26;29.77;101758.84;4996956;28;20114;-75
2023/04/27 06:37:46;;;;;;;11.32;3.10;;;24.90;79.60;;;27.38;29.00;101758.44;4989719;28;20147;-75
2023/04/27 06:40:12;;;;;;;7.03;2.65;;;25.30;83.20;;;28.00;29.05;101763.81;5009495;28;20030;-75
2023/04/27 06:42:38;;;;;;;8.88;2.60;;;25.70;82.30;;;28.47;28.20;101773.34;5004865;28;20050;-76
2023/04/27 06:45:06;;;;;;;9.32;3.13;;;26.10;81.60;;;27.81;28.98;101766.72;4998149;28;20067;-75
2023/04/27 06:47:32;;;;;;;8.68;2.92;;;26.50;81.30;;;28.73;28.22;101775.16;5007196;28;20738;-75
2023/04/27 06:49:58;;;;;;;11.75;3.03;;;26.90;79.10;;;28.81;27.90;101776.00;4984350;28;20033;-76
2023/04/27 06:52:24;;;;;;;14.75;2.90;;;26.80;78.20;;;26.50;29.65;101763.63;4952331;28;20048;-76
2023/04/27 06:54:49;;;;;;;;;;;26.70;78.70;;;25.15;31.12;101744.91;4983137;28;20116;-76
2023/04/27 06:57:15;;;;;;;7.55;2.15;;;25.20;76.40;;;25.88;30.68;101755.22;5002497;28;19931;-75
2023/04/27 06:59:41;;;;;;;7.80;2.55;;;24.80;77.80;;;25.62;30.93;101759.53;5005764;28;20517;-75
2023/04/27 07:02:07;;;;;;;9.90;2.75;;;24.80;81.20;;;25.90;30.85;101755.94;5007760;28;20101;-75
2023/04/27 07:04:35;;;;;;;12.65;2.90;;;25.10;81.30;;;26.38;30.01;101760.25;5010587;28;20052;-75
2023/04/27 07:07:01;;;;;;;14.20;2.70;;;25.30;80.30;;;26.52;30.16;101771.56;5005047;28;20053;-75
2023/04/27 07:09:27;;;;;;;11.70;2.50;;;25.60;75.90;;;26.59;29.52;101772.72;5007850;28;20083;-76
2023/04/27 07:11:54;;;;;;;8.25;2.30;;;26.10;79.30;;;27.08;29.12;101770.50;4994019;28;20041;-75
2023/04/27 07:14:20;;;;;;;8.30;2.70;;;25.80;76.90;;;24.66;31.65;101746.72;4991732;28;20029;-75
2023/04/27 07:16:46;;;;;;;12.00;3.03;;;24.90;77.10;;;22.73;33.26;101735.44;4997510;28;20133;-75
2023/04/27 07:19:12;;;;;;;12.23;2.45;;;23.20;77.00;;;20.55;35.64;101713.91;4987547;28;20045;-75
2023/04/27 07:21:37;;;;;;;7.07;2.22;;;21.30;79.30;;;18.43;38.26;101694.53;4997302;28;20450;-75
2023/04/27 07:24:03;;;;;;;8.40;2.70;;;19.60;83.60;;;17.68;40.22;101684.06;4990406;28;20113;-75
2023/04/27 07:26:30;;;;;;;14.43;2.45;;;18.90;86.70;;;18.27;39.50;101686.63;5001575;28;20029;-75
2023/04/27 07:28:57;;;;;;;7.65;2.42;;;18.30;88.60;;;17.23;41.59;101672.59;5002647;28;20029;-75
2023/04/27 07:31:23;;;;;;;11.88;2.65;;;17.90;90.40;;;16.90;41.81;101670.13;4970623;28;20029;-75
2023/04/27 07:33:49;;;;;;;10.48;2.10;;;17.30;89.60;;;15.54;43.01;101650.09;4992447;28;20429;-75
2023/04/27 07:36:17;;;;;;;10.38;2.70;;;16.50;91.10;;;14.82;44.65;101644.06;5008333;28;20049;-75
2023/04/27 07:38:43;;;;;;;11.15;2.60;;;16.50;91.90;;;17.03;42.40;101657.81;5006810;28;20045;-75
2023/04/27 07:41:09;;;;;;;7.30;2.00;;;17.70;92.00;;;19.05;39.86;101686.91;5001160;28;20052;-76
2023/04/27 07:43:34;;;;;;;9.02;1.85;;;18.90;90.30;;;19.59;39.08;101691.25;4998188;28;20037;-75
2023/04/27 07:46:00;;;;;;;6.47;1.88;;;19.40;88.00;;;18.58;39.28;101687.34;5004045;28;20612;-75
2023/04/27 07:48:27;;;;;;;12.25;2.30;;;19.00;88.30;;;17.57;40.51;101676.72;4999924;28;20053;-75
2023/04/27 07:50:57;;;;;;;8.85;2.00;;;18.10;86.90;;;16.39;41.04;101670.31;5006284;28;20453;-75
2023/04/27 07:53:23;;;;;;;11.55;2.00;;;17.10;89.20;;;15.22;43.32;101644.69;4994984;28;20092;-75
2023/04/27 07:55:50;;;;;;;8.80;1.98;;;15.90;90.40;;;14.02;44.94;101637.25;5004516;28;20038;-76
2023/04/27 07:58:15;;;;;;;6.50;1.60;;;15.20;91.60;;;13.19;46.81;101614.47;4983375;28;20731;-76
2023/04/27 08:00:41;;;;;;;9.10;2.20;;;14.20;92.30;;;12.34;47.60;101606.56;5004770;28;20026;-76
2023/04/27 08:03:07;;;;;;;9.38;1.83;;;13.30;93.80;;;11.33;50.19;101600.66;4971232;28;20034;-75
2023/04/27 08:05:33;;;;;;;9.63;2.47;;;12.90;95.20;;;11.40;51.15;101607.47;4987263;28;20022;-76
2023/04/27 08:07:59;;;;;;;8.48;1.80;;;12.40;94.50;;;11.12;50.80;101599.63;4982625;28;20063;-75
2023/04/27 08:10:25;;;;;;;8.95;2.33;;;12.80;96.20;;;13.00;49.82;101613.56;5002599;28;20030;-75
2023/04/27 08:12:51;;;;;;;5.72;1.50;;;13.80;94.50;;;13.71;46.76;101620.16;4984982;28;20049;-75
2023/04/27 08:15:17;;;;;;;10.45;1.80;;;14.20;94.10;;;13.31;47.09;101624.56;4998748;28;20033;-76
2023/04/27 08:17:42;;;;;;;10.18;2.10;;;14.50;93.60;;;14.34;46.12;101632.22;5004480;28;20034;-74
2023/04/27 08:20:12;;;;;;;7.10;1.75;;;15.20;93.50;;;15.46;45.00;101639.03;5005268;28;20037;-75
2023/04/27 08:22:40;;;;;;;8.20;2.20;;;16.20;92.90;;;15.92;43.53;101637.47;4991509;28;20052;-76
2023/04/27 08:25:07;;;;;;;7.95;1.98;;;16.70;92.40;;;16.52;42.93;101647.44;4999256;28;20049;-77
2023/04/27 08:27:37;;;;;;;4.07;1.35;;;17.20;91.70;;;17.28;41.80;101659.00;5004984;28;20034;-75
2023/04/27 08:30:04;;;;;;;9.88;2.10;;;17.40;90.70;;;16.72;41.94;101659.56;5006371;28;20033;-76
2023/04/27 08:32:30;;;;;;;6.45;1.52;;;17.10;90.20;;;15.77;42.22;101647.13;4979617;28;20031;-75
2023/04/27 08:34:55;;;;;;;5.22;1.17;;;16.60;90.00;;;15.06;42.73;101643.75;4970289;28;20117;-76
2023/04/27 08:37:23;;;;;;;7.63;1.83;;;15.80;91.40;;;14.34;45.05;101629.56;5001259;28;20054;-76
2023/04/27 08:39:49;;;;;;;10.25;2.13;;;15.40;92.00;;;14.69;44.99;101625.25;4984522;28;20538;-76
2023/04/27 08:42:15;;;;;;;8.77;2.05;;;15.50;92.80;;;15.47;44.15;101632.81;4994025;28;20540;-75
2023/04/27 08:44:42;;;;;;;5.38;1.73;;;16.00;92.60;;;16.14;43.49;101633.63;5009316;28;20129;-76
2023/04/27 08:47:09;;;;;;;7.10;2.03;;;16.40;92.40;;;16.30;43.37;101634.47;5007915;28;20645;-76
2023/04/27 08:49:42;;;;;;;8.45;1.70;;;16.50;91.70;;;15.88;43.33;101630.59;4997439;28;20037;-76
2023/04/27 08:52:14;;;;;;;7.68;1.90;;;16.20;91.50;;;15.06;44.33;101634.00;4993935;28;20045;-76
2023/04/27 08:54:42;;;;;;;4.13;1.20;;;15.20;90.40;;;13.56;45.32;101612.03;5010171;28;20506;-76
2023/04/27 08:57:15;;;;;;;6.03;1.67;;;14.70;92.40;;;13.55;46.96;101608.53;4977895;28;20079;-76
2023/04/27 08:59:44;;;;;;;6.15;1.88;;;14.70;93.20;;;14.09;46.81;101606.91;4993261;28;20045;-76
2023/04/27 09:02:22;;;;;;;5.47;1.33;;;15.00;92.20;;;14.57;45.03;101600.19;4996954;28;20071;-76
2023/04/27 09:04:50;;;;;;;8.55;1.80;;;15.20;91.90;;;14.26;44.87;101608.75;4972904;28;20533;-75
2023/04/27 09:07:17;;;;;;;6.78;2.08;;;15.00;92.60;;;13.91;46.11;101619.22;4955203;28;20050;-76
2023/04/27 09:09:44;;;;;;;4.88;1.80;;;14.80;93.10;;;13.82;46.59;101610.84;4983394;28;20030;-76
2023/04/27 09:12:21;;;;;;;8.57;1.67;;;14.60;93.80;;;13.70;47.33;101605.19;4984576;28;20044;-76
2023/04/27 09:15:05;;;;;;;4.65;1.60;;;14.50;93.90;;;13.61;47.65;101596.81;4993621;28;20045;-76
2023/04/27 09:17:32;;;;;;;12.98;1.95;;;14.30;93.90;;;13.43;47.91;101602.00;4982585;28;20394;-76
2023/04/27 09:20:12;;;;;;;5.15;1.55;;;14.30;93.00;;;13.33;47.16;101600.69;4981635;28;20506;-76
2023/04/27 09:22:44;;;;;;;6.78;1.67;;;14.20;93.80;;;13.39;47.82;101588.97;5009964;28;20327;-76
2023/04/27 09:25:26;;;;;;;6.20;1.42;;;14.30;93.60;;;13.47;47.26;101586.84;5012605;28;20715;-76
2023/04/27 09:27:55;;;;;;;7.72;1.60;;;14.40;93.30;;;13.51;47.13;101588.44;5008382;28;20409;-76
2023/04/27 09:30:27;;;;;;;7.50;1.58;;;14.20;92.20;;;13.00;46.32;101584.47;4999330;28;20053;-76
2023/04/27 09:33:02;;;;;;;8.02;1.50;;;13.80;93.40;;;12.52;48.26;101579.41;4975757;28;20108;-76
2023/04/27 09:35:32;;;;;;;5.53;1.42;;;13.60;93.40;;;12.64;47.32;101571.91;5000822;28;20076;-75
2023/04/27 09:38:01;;;;;;;7.10;1.58;;;13.80;95.10;;;13.05;48.95;101579.88;4986721;28;20041;-76
2023/04/27 09:40:29;;;;;;;9.38;1.90;;;13.90;93.90;;;13.13;47.56;101573.31;4991478;28;20091;-76
2023/04/27 09:43:00;;;;;;;11.13;1.50;;;14.00;94.30;;;13.40;48.06;101567.75;5007599;28;20041;-77
2023/04/27 09:45:26;;;;;;;9.20;1.77;;;14.20;93.80;;;13.55;47.45;101579.44;5009115;28;20100;-77
2023/04/27 09:47:53;;;;;;;8.65;1.38;;;14.40;93.20;;;13.69;46.30;101582.31;5001679;28;20036;-77
2023/04/27 09:50:22;;;;;;;6.28;1.55;;;14.50;93.50;;;13.92;46.14;101570.63;4951329;28;20064;-77
2023/04/27 09:52:51;;;;;;;9.38;1.67;;;14.70;93.10;;;14.27;45.80;101580.47;4957714;28;20041;-78
2023/04/27 09:55:36;;;;;;;8.65;1.85;;;14.90;93.60;;;14.18;46.76;101570.34;5027095;28;20529;-78
2023/04/27 09:58:33;;;;;;;4.80;1.15;;;14.70;89.30;;;12.95;44.54;101575.88;5007147;28;20034;-78
2023/04/27 10:01:29;;;;;;;4.05;1.02;;;14.00;91.40;;;12.47;45.88;101576.09;4996474;28;20041;-78
2023/04/27 10:04:11;;;;;;;6.18;1.92;;;13.40;92.70;;;12.05;47.74;101560.19;5018058;28;20070;-77
2023/04/27 10:07:08;;;;;;;6.18;1.70;;;13.30;94.90;;;12.39;49.80;101553.56;4999740;28;20087;-77
2023/04/27 10:09:50;;;;;;;7.43;1.70;;;13.50;96.00;;;12.84;50.13;101553.41;5004938;28;20072;-77
2023/04/27 10:12:25;;;;;;;6.78;1.30;;;13.90;94.40;;;13.42;47.75;101559.75;4980641;28;20137;-77
2023/04/27 10:15:02;;;;;;;5.68;1.30;;;14.30;93.90;;;13.97;47.29;101562.47;4986698;28;20045;-77